createdAt,value
2023-10-31T00:00:37.713Z,3.40
2023-10-31T00:01:37.678Z,3.60
2023-10-31T00:02:37.682Z,3.60
2023-10-31T00:03:37.679Z,3.50
2023-10-31T00:04:37.708Z,3.30
2023-10-31T00:05:37.640Z,3.10
2023-10-31T00:06:37.601Z,3.30
2023-10-31T00:07:37.684Z,3.30
2023-10-31T00:08:37.632Z,3.90
2023-10-31T00:09:37.695Z,3.40
2023-10-31T00:10:37.615Z,3.10
2023-10-31T00:11:37.576Z,3.30
2023-10-31T00:12:37.543Z,3.30
2023-10-31T00:13:37.551Z,3.10
2023-10-31T00:14:37.592Z,3.10
2023-10-31T00:15:37.620Z,3.10
2023-10-31T00:16:37.558Z,3.30
2023-10-31T00:17:37.539Z,3.20
2023-10-31T00:18:37.482Z,3.30
2023-10-31T00:19:37.549Z,3.50
2023-10-31T00:20:37.465Z,3.00
2023-10-31T00:21:37.456Z,3.30
2023-10-31T00:22:37.453Z,3.00
2023-10-31T00:23:37.460Z,3.00
2023-10-31T00:24:37.450Z,3.10
2023-10-31T00:25:37.430Z,3.10
2023-10-31T00:26:37.392Z,3.10
2023-10-31T00:27:37.370Z,3.00
2023-10-31T00:28:37.410Z,3.00
2023-10-31T00:29:37.392Z,3.30
2023-10-31T00:30:37.364Z,3.00
2023-10-31T00:31:37.387Z,3.80
2023-10-31T00:32:37.364Z,3.20
2023-10-31T00:33:37.316Z,3.40
2023-10-31T00:34:37.338Z,3.40
2023-10-31T00:35:37.284Z,3.20
2023-10-31T00:36:37.316Z,3.30
2023-10-31T00:37:37.297Z,3.50
2023-10-31T00:38:37.248Z,3.40
2023-10-31T00:39:37.276Z,3.40
2023-10-31T00:40:37.294Z,3.20
2023-10-31T00:41:37.219Z,3.80
2023-10-31T00:42:37.213Z,3.10
2023-10-31T00:43:37.224Z,2.90
2023-10-31T00:44:37.210Z,3.00
2023-10-31T00:45:37.230Z,2.90
2023-10-31T00:46:37.212Z,3.00
2023-10-31T00:47:37.237Z,2.90
2023-10-31T00:48:37.147Z,3.20
2023-10-31T00:49:37.190Z,2.90
2023-10-31T00:50:37.116Z,2.90
2023-10-31T00:51:37.114Z,3.30
2023-10-31T00:52:37.120Z,3.10
2023-10-31T00:53:37.091Z,3.40
2023-10-31T00:54:37.110Z,3.90
2023-10-31T00:55:37.148Z,3.20
2023-10-31T00:56:37.099Z,3.00
2023-10-31T00:57:37.085Z,3.60
2023-10-31T00:58:37.084Z,3.00
2023-10-31T00:59:37.035Z,3.10
2023-10-31T01:00:37.027Z,2.60
2023-10-31T01:01:37.052Z,2.90
2023-10-31T01:02:37.042Z,3.60
2023-10-31T01:03:37.000Z,3.90
2023-10-31T01:04:37.003Z,3.40
2023-10-31T01:05:36.961Z,3.30
2023-10-31T01:06:36.954Z,3.50
2023-10-31T01:07:36.944Z,3.90
2023-10-31T01:08:36.962Z,3.40
2023-10-31T01:09:36.957Z,5.50
2023-10-31T01:10:36.913Z,3.80
2023-10-31T01:11:36.903Z,4.30
2023-10-31T01:12:36.918Z,2.70
2023-10-31T01:13:36.872Z,3.30
2023-10-31T01:14:36.932Z,3.50
2023-10-31T01:15:36.871Z,4.20
2023-10-31T01:16:36.861Z,3.60
2023-10-31T01:17:36.873Z,3.50
2023-10-31T01:18:36.844Z,3.60
2023-10-31T01:19:36.885Z,3.40
2023-10-31T01:20:36.805Z,3.50
2023-10-31T01:21:36.784Z,3.70
2023-10-31T01:22:36.885Z,3.50
2023-10-31T01:23:36.761Z,3.60
2023-10-31T01:24:36.765Z,3.70
2023-10-31T01:25:36.781Z,3.90
2023-10-31T01:26:36.718Z,3.70
2023-10-31T01:27:36.740Z,3.90
2023-10-31T01:28:36.729Z,3.50
2023-10-31T01:29:36.706Z,3.40
2023-10-31T01:30:36.687Z,3.60
2023-10-31T01:31:42.120Z,3.50
2023-10-31T01:32:36.729Z,3.40
2023-10-31T01:33:36.694Z,3.60
2023-10-31T01:34:36.736Z,3.50
2023-10-31T01:35:36.657Z,3.40
2023-10-31T01:36:36.620Z,3.60
2023-10-31T01:37:36.656Z,3.30
2023-10-31T01:38:36.598Z,3.40
2023-10-31T01:39:36.614Z,3.60
2023-10-31T01:40:43.144Z,3.40
2023-10-31T01:41:36.558Z,4.00
2023-10-31T01:42:36.534Z,3.50
2023-10-31T01:43:36.640Z,3.70
2023-10-31T01:44:36.618Z,3.90
2023-10-31T01:45:36.525Z,3.00
2023-10-31T01:46:36.554Z,3.50
2023-10-31T01:47:36.516Z,3.80
2023-10-31T01:48:36.602Z,4.30
2023-10-31T01:49:36.533Z,3.20
2023-10-31T01:50:36.453Z,3.60
2023-10-31T01:51:36.461Z,3.50
2023-10-31T01:52:36.460Z,3.40
2023-10-31T01:53:36.448Z,3.80
2023-10-31T01:54:36.446Z,4.10
2023-10-31T01:55:36.399Z,3.70
2023-10-31T01:56:36.371Z,3.70
2023-10-31T01:57:36.372Z,3.60
2023-10-31T01:58:36.553Z,3.50
2023-10-31T01:59:36.396Z,3.70
2023-10-31T02:00:36.333Z,3.50
2023-10-31T02:01:36.410Z,3.80
2023-10-31T02:02:36.439Z,3.40
2023-10-31T02:03:36.374Z,3.90
2023-10-31T02:04:36.337Z,3.90
2023-10-31T02:05:36.321Z,3.90
2023-10-31T02:06:36.290Z,4.20
2023-10-31T02:07:36.441Z,3.50
2023-10-31T02:08:36.308Z,3.50
2023-10-31T02:09:36.257Z,3.70
2023-10-31T02:10:36.288Z,4.00
2023-10-31T02:11:36.252Z,3.70
2023-10-31T02:12:36.220Z,3.80
2023-10-31T02:13:36.316Z,4.00
2023-10-31T02:14:36.204Z,4.40
2023-10-31T02:15:36.168Z,3.60
2023-10-31T02:16:36.238Z,3.60
2023-10-31T02:17:36.185Z,3.60
2023-10-31T02:18:36.234Z,3.80
2023-10-31T02:19:36.178Z,3.60
2023-10-31T02:20:36.124Z,3.70
2023-10-31T02:21:36.109Z,4.10
2023-10-31T02:22:36.112Z,3.80
2023-10-31T02:23:36.075Z,3.80
2023-10-31T02:24:36.117Z,4.60
2023-10-31T02:25:36.145Z,4.40
2023-10-31T02:26:36.116Z,3.80
2023-10-31T02:27:36.061Z,4.10
2023-10-31T02:28:36.112Z,3.80
2023-10-31T02:29:36.081Z,3.90
2023-10-31T02:30:36.052Z,3.90
2023-10-31T02:31:36.098Z,3.30
2023-10-31T02:32:36.129Z,4.10
2023-10-31T02:33:36.004Z,3.70
2023-10-31T02:34:36.113Z,3.60
2023-10-31T02:35:35.984Z,3.50
2023-10-31T02:36:36.047Z,4.20
2023-10-31T02:37:36.128Z,3.80
2023-10-31T02:38:35.908Z,4.00
2023-10-31T02:39:35.933Z,4.20
2023-10-31T02:40:35.899Z,4.10
2023-10-31T02:41:35.892Z,3.90
2023-10-31T02:42:35.967Z,4.40
2023-10-31T02:43:35.877Z,4.20
2023-10-31T02:44:35.865Z,4.10
2023-10-31T02:45:35.874Z,3.70
2023-10-31T02:46:35.835Z,4.20
2023-10-31T02:47:35.835Z,4.20
2023-10-31T02:48:35.800Z,4.70
2023-10-31T02:49:35.858Z,4.60
2023-10-31T02:50:35.836Z,3.90
2023-10-31T02:51:35.806Z,4.00
2023-10-31T02:52:35.793Z,4.00
2023-10-31T02:53:35.753Z,4.80
2023-10-31T02:54:35.736Z,4.20
2023-10-31T02:55:35.760Z,4.60
2023-10-31T02:56:35.726Z,4.50
2023-10-31T02:57:35.741Z,4.20
2023-10-31T02:58:35.705Z,4.90
2023-10-31T02:59:35.681Z,4.90
2023-10-31T03:00:35.726Z,4.50
2023-10-31T03:01:35.683Z,4.40
2023-10-31T03:02:35.786Z,4.50
2023-10-31T03:03:35.735Z,4.80
2023-10-31T03:04:35.710Z,4.80
2023-10-31T03:05:35.692Z,5.30
2023-10-31T03:06:35.606Z,4.80
2023-10-31T03:07:35.628Z,4.90
2023-10-31T03:08:35.580Z,4.80
2023-10-31T03:09:35.575Z,6.00
2023-10-31T03:10:35.572Z,5.00
2023-10-31T03:11:35.667Z,4.80
2023-10-31T03:12:35.527Z,5.40
2023-10-31T03:13:35.541Z,5.00
2023-10-31T03:14:35.540Z,5.30
2023-10-31T03:15:35.621Z,5.20
2023-10-31T03:16:35.548Z,5.50
2023-10-31T03:17:35.527Z,6.10
2023-10-31T03:18:35.459Z,5.00
2023-10-31T03:19:35.477Z,5.30
2023-10-31T03:20:35.466Z,5.50
2023-10-31T03:21:35.442Z,6.00
2023-10-31T03:22:35.438Z,6.70
2023-10-31T03:23:35.420Z,5.70
2023-10-31T03:24:35.403Z,6.10
2023-10-31T03:25:35.433Z,6.50
2023-10-31T03:26:35.396Z,6.20
2023-10-31T03:27:35.446Z,6.10
2023-10-31T03:28:35.363Z,5.70
2023-10-31T03:29:35.399Z,5.80
2023-10-31T03:30:35.468Z,6.40
2023-10-31T03:31:35.339Z,6.30
2023-10-31T03:32:35.439Z,6.10
2023-10-31T03:33:35.341Z,6.20
2023-10-31T03:34:35.372Z,5.80
2023-10-31T03:35:35.362Z,6.30
2023-10-31T03:36:35.295Z,6.00
2023-10-31T03:37:35.253Z,7.30
2023-10-31T03:38:35.398Z,6.70
2023-10-31T03:39:35.284Z,6.80
2023-10-31T03:40:35.252Z,6.00
2023-10-31T03:41:35.229Z,6.40
2023-10-31T03:42:35.258Z,6.10
2023-10-31T03:43:35.195Z,5.80
2023-10-31T03:44:35.196Z,7.10
2023-10-31T03:45:35.204Z,7.10
2023-10-31T03:46:35.256Z,6.70
2023-10-31T03:47:35.183Z,8.30
2023-10-31T03:48:35.188Z,6.50
2023-10-31T03:49:35.122Z,7.10
2023-10-31T03:50:35.139Z,6.90
2023-10-31T03:51:35.096Z,7.20
2023-10-31T03:52:35.095Z,6.90
2023-10-31T03:53:35.075Z,6.90
2023-10-31T03:54:35.056Z,6.20
2023-10-31T03:55:35.122Z,7.00
2023-10-31T03:56:35.134Z,6.90
2023-10-31T03:57:35.029Z,7.30
2023-10-31T03:58:35.051Z,7.50
2023-10-31T03:59:35.020Z,8.40
2023-10-31T04:00:35.131Z,7.20
2023-10-31T04:01:34.994Z,7.20
2023-10-31T04:02:35.019Z,7.50
2023-10-31T04:03:35.011Z,7.60
2023-10-31T04:04:34.959Z,7.30
2023-10-31T04:05:35.004Z,7.00
2023-10-31T04:06:34.931Z,7.30
2023-10-31T04:07:34.907Z,6.80
2023-10-31T04:08:34.911Z,7.70
2023-10-31T04:09:34.905Z,7.30
2023-10-31T04:10:34.913Z,7.50
2023-10-31T04:11:34.867Z,7.00
2023-10-31T04:12:35.016Z,7.50
2023-10-31T04:13:34.848Z,7.90
2023-10-31T04:14:34.848Z,7.30
2023-10-31T04:15:34.869Z,8.50
2023-10-31T04:16:36.091Z,7.50
2023-10-31T04:17:34.827Z,8.00
2023-10-31T04:18:34.833Z,7.50
2023-10-31T04:19:34.818Z,7.60
2023-10-31T04:20:34.820Z,7.70
2023-10-31T04:21:34.772Z,7.30
2023-10-31T04:22:34.742Z,7.10
2023-10-31T04:23:36.825Z,8.10
2023-10-31T04:24:34.731Z,7.40
2023-10-31T04:25:34.742Z,8.00
2023-10-31T04:26:34.719Z,7.70
2023-10-31T04:27:34.730Z,7.90
2023-10-31T04:28:34.678Z,7.70
2023-10-31T04:29:34.726Z,8.40
2023-10-31T04:30:34.734Z,7.80
2023-10-31T04:31:41.348Z,7.80
2023-10-31T04:32:34.811Z,7.90
2023-10-31T04:33:34.664Z,7.70
2023-10-31T04:34:34.628Z,8.00
2023-10-31T04:35:34.643Z,7.50
2023-10-31T04:36:34.633Z,7.70
2023-10-31T04:37:35.407Z,7.60
2023-10-31T04:38:34.609Z,7.40
2023-10-31T04:39:34.586Z,7.70
2023-10-31T04:40:34.581Z,7.20
2023-10-31T04:41:34.601Z,7.80
2023-10-31T04:42:34.569Z,8.10
2023-10-31T04:43:34.525Z,8.30
2023-10-31T04:44:34.507Z,7.70
2023-10-31T04:45:34.541Z,7.70
2023-10-31T04:46:34.572Z,7.70
2023-10-31T04:47:34.723Z,7.40
2023-10-31T04:48:34.468Z,7.80
2023-10-31T04:49:34.447Z,7.70
2023-10-31T04:50:34.565Z,7.40
2023-10-31T04:51:34.422Z,7.90
2023-10-31T04:52:34.455Z,7.30
2023-10-31T04:53:34.454Z,7.10
2023-10-31T04:54:34.407Z,7.70
2023-10-31T04:55:34.412Z,7.80
2023-10-31T04:56:34.382Z,7.90
2023-10-31T04:57:34.387Z,8.60
2023-10-31T04:58:34.336Z,8.40
2023-10-31T04:59:34.345Z,7.90
2023-10-31T05:00:34.349Z,7.40
2023-10-31T05:01:34.317Z,7.80
2023-10-31T05:02:34.352Z,7.60
2023-10-31T05:03:34.405Z,7.80
2023-10-31T05:04:34.399Z,8.40
2023-10-31T05:05:34.356Z,8.40
2023-10-31T05:06:34.264Z,7.10
2023-10-31T05:07:34.296Z,7.20
2023-10-31T05:08:34.290Z,7.40
2023-10-31T05:09:34.222Z,8.20
2023-10-31T05:10:34.263Z,7.30
2023-10-31T05:11:34.216Z,7.60
2023-10-31T05:12:34.225Z,7.70
2023-10-31T05:13:34.185Z,8.10
2023-10-31T05:14:34.167Z,8.40
2023-10-31T05:15:34.209Z,7.40
2023-10-31T05:16:34.155Z,7.80
2023-10-31T05:17:34.201Z,8.20
2023-10-31T05:18:34.133Z,7.80
2023-10-31T05:19:34.132Z,8.80
2023-10-31T05:20:34.194Z,8.10
2023-10-31T05:21:34.124Z,8.40
2023-10-31T05:22:34.083Z,7.90
2023-10-31T05:23:34.100Z,8.00
2023-10-31T05:24:34.105Z,8.10
2023-10-31T05:25:34.056Z,7.40
2023-10-31T05:26:34.055Z,8.30
2023-10-31T05:27:35.174Z,7.10
2023-10-31T05:28:34.030Z,7.70
2023-10-31T05:29:34.026Z,7.40
2023-10-31T05:30:33.993Z,9.60
2023-10-31T05:31:33.993Z,9.90
2023-10-31T05:32:33.981Z,10.90
2023-10-31T05:33:33.998Z,10.40
2023-10-31T05:34:33.995Z,10.30
2023-10-31T05:35:34.003Z,9.50
2023-10-31T05:36:33.980Z,9.20
2023-10-31T05:37:33.919Z,9.40
2023-10-31T05:38:33.930Z,8.70
2023-10-31T05:39:33.915Z,9.10
2023-10-31T05:40:33.893Z,8.90
2023-10-31T05:41:33.937Z,9.60
2023-10-31T05:42:33.914Z,9.50
2023-10-31T05:43:33.842Z,9.50
2023-10-31T05:44:33.853Z,9.20
2023-10-31T05:45:33.896Z,9.90
2023-10-31T05:46:33.816Z,9.90
2023-10-31T05:47:33.797Z,10.90
2023-10-31T05:48:33.813Z,11.60
2023-10-31T05:49:33.784Z,10.30
2023-10-31T05:50:33.825Z,10.20
2023-10-31T05:51:33.763Z,10.40
2023-10-31T05:52:33.753Z,9.90
2023-10-31T05:53:33.802Z,10.10
2023-10-31T05:54:33.763Z,10.20
2023-10-31T05:55:33.811Z,9.70
2023-10-31T05:56:33.801Z,9.80
2023-10-31T05:57:33.750Z,11.00
2023-10-31T05:58:33.669Z,10.90
2023-10-31T05:59:33.729Z,10.60
2023-10-31T06:00:33.723Z,11.80
2023-10-31T06:01:33.683Z,10.30
2023-10-31T06:02:33.669Z,11.00
2023-10-31T06:03:33.673Z,11.30
2023-10-31T06:04:33.609Z,12.00
2023-10-31T06:05:33.675Z,13.60
2023-10-31T06:06:33.659Z,10.50
2023-10-31T06:07:33.575Z,10.70
2023-10-31T06:08:33.663Z,10.40
2023-10-31T06:09:33.580Z,10.30
2023-10-31T06:10:33.580Z,9.10
2023-10-31T06:11:33.606Z,9.70
2023-10-31T06:12:33.504Z,9.90
2023-10-31T06:13:33.503Z,9.50
2023-10-31T06:14:33.581Z,9.00
2023-10-31T06:15:33.485Z,9.80
2023-10-31T06:16:33.514Z,9.30
2023-10-31T06:17:33.553Z,8.80
2023-10-31T06:18:33.523Z,9.40
2023-10-31T06:19:33.440Z,8.50
2023-10-31T06:20:33.483Z,6.90
2023-10-31T06:21:33.443Z,6.80
2023-10-31T06:22:33.408Z,7.40
2023-10-31T06:23:33.444Z,7.60
2023-10-31T06:24:33.504Z,7.20
2023-10-31T06:25:33.392Z,6.50
2023-10-31T06:26:33.395Z,6.60
2023-10-31T06:27:33.375Z,6.60
2023-10-31T06:28:34.143Z,6.00
2023-10-31T06:29:49.694Z,5.90
2023-10-31T06:30:33.352Z,5.40
2023-10-31T06:31:33.373Z,5.40
2023-10-31T06:32:33.393Z,5.90
2023-10-31T06:33:33.301Z,5.00
2023-10-31T06:34:33.318Z,5.10
2023-10-31T06:35:33.296Z,3.60
2023-10-31T06:36:33.262Z,3.30
2023-10-31T06:37:33.259Z,3.60
2023-10-31T06:38:33.238Z,3.60
2023-10-31T06:39:33.223Z,4.20
2023-10-31T06:40:33.287Z,4.30
2023-10-31T06:41:33.216Z,3.80
2023-10-31T06:42:33.211Z,3.50
2023-10-31T06:43:35.005Z,2.70
2023-10-31T06:44:33.165Z,2.70
2023-10-31T06:45:33.164Z,2.90
2023-10-31T06:46:33.210Z,3.10
2023-10-31T06:47:33.161Z,2.30
2023-10-31T06:48:33.129Z,2.30
2023-10-31T06:49:33.163Z,2.40
2023-10-31T06:50:33.236Z,1.90
2023-10-31T06:51:33.117Z,1.80
2023-10-31T06:52:33.055Z,1.70
2023-10-31T06:53:33.086Z,2.00
2023-10-31T06:54:33.078Z,2.00
2023-10-31T06:55:33.080Z,2.20
2023-10-31T06:56:33.040Z,2.70
2023-10-31T06:57:33.048Z,3.80
2023-10-31T06:58:33.012Z,4.70
2023-10-31T06:59:33.028Z,4.90
2023-10-31T07:00:33.085Z,4.80
2023-10-31T07:01:33.015Z,5.70
2023-10-31T07:02:32.991Z,5.20
2023-10-31T07:03:32.987Z,5.80
2023-10-31T07:04:33.094Z,5.30
2023-10-31T07:05:32.934Z,6.60
2023-10-31T07:06:32.940Z,7.90
2023-10-31T07:07:32.907Z,8.30
2023-10-31T07:08:32.892Z,8.80
2023-10-31T07:09:32.890Z,8.90
2023-10-31T07:10:32.920Z,9.30
2023-10-31T07:11:32.911Z,9.20
2023-10-31T07:12:32.872Z,10.20
2023-10-31T07:13:32.843Z,9.80
2023-10-31T07:14:32.831Z,10.30
2023-10-31T07:15:32.825Z,10.10
2023-10-31T07:16:32.849Z,10.40
2023-10-31T07:17:32.925Z,9.40
2023-10-31T07:18:32.877Z,9.70
2023-10-31T07:19:32.807Z,9.90
2023-10-31T07:20:32.842Z,9.00
2023-10-31T07:21:32.746Z,10.00
2023-10-31T07:22:32.763Z,9.30
2023-10-31T07:23:33.740Z,9.00
2023-10-31T07:24:32.718Z,8.50
2023-10-31T07:25:32.766Z,8.50
2023-10-31T07:26:32.684Z,8.20
2023-10-31T07:27:32.725Z,7.60
2023-10-31T07:28:32.692Z,6.10
2023-10-31T07:29:32.675Z,6.00
2023-10-31T07:30:32.636Z,5.70
2023-10-31T07:31:32.644Z,6.10
2023-10-31T07:32:32.699Z,6.00
2023-10-31T07:33:32.676Z,4.80
2023-10-31T07:34:32.587Z,4.40
2023-10-31T07:35:32.621Z,4.60
2023-10-31T07:36:32.644Z,3.90
2023-10-31T07:37:35.762Z,3.30
2023-10-31T07:38:32.579Z,3.60
2023-10-31T07:39:32.688Z,3.80
2023-10-31T07:40:32.575Z,3.00
2023-10-31T07:41:32.523Z,3.10
2023-10-31T07:42:32.585Z,3.10
2023-10-31T07:43:32.545Z,3.20
2023-10-31T07:44:32.561Z,2.70
2023-10-31T07:45:32.545Z,2.50
2023-10-31T07:46:32.485Z,2.10
2023-10-31T07:47:32.493Z,2.30
2023-10-31T07:48:32.496Z,1.60
2023-10-31T07:49:32.476Z,1.30
2023-10-31T07:50:32.430Z,1.20
2023-10-31T07:51:32.416Z,1.20
2023-10-31T07:52:32.468Z,1.20
2023-10-31T07:53:32.391Z,1.20
2023-10-31T07:54:32.408Z,0.80
2023-10-31T07:55:32.412Z,0.70
2023-10-31T07:56:32.363Z,1.00
2023-10-31T07:57:32.372Z,0.90
2023-10-31T07:58:32.342Z,0.80
2023-10-31T07:59:32.366Z,0.90
2023-10-31T08:00:32.364Z,1.00
2023-10-31T08:01:33.114Z,0.80
2023-10-31T08:02:32.398Z,0.80
2023-10-31T08:03:32.411Z,0.70
2023-10-31T08:04:32.264Z,0.80
2023-10-31T08:05:32.341Z,0.60
2023-10-31T08:06:32.254Z,0.60
2023-10-31T08:07:32.369Z,0.60
2023-10-31T08:08:32.218Z,0.60
2023-10-31T08:09:32.273Z,0.60
2023-10-31T08:10:32.440Z,0.50
2023-10-31T08:11:32.287Z,0.50
2023-10-31T08:12:32.282Z,0.60
2023-10-31T08:13:32.245Z,0.60
2023-10-31T08:14:32.222Z,0.70
2023-10-31T08:15:32.154Z,0.60
2023-10-31T08:16:32.367Z,0.70
2023-10-31T08:17:32.202Z,0.50
2023-10-31T08:18:32.152Z,0.90
2023-10-31T08:19:32.105Z,0.70
2023-10-31T08:20:32.157Z,0.50
2023-10-31T08:21:32.112Z,0.70
2023-10-31T08:22:32.068Z,0.50
2023-10-31T08:23:32.072Z,0.60
2023-10-31T08:24:32.098Z,0.70
2023-10-31T08:25:32.044Z,0.70
2023-10-31T08:26:32.044Z,0.50
2023-10-31T08:27:32.321Z,0.60
2023-10-31T08:28:32.013Z,0.50
2023-10-31T08:29:32.050Z,0.50
2023-10-31T08:30:31.988Z,0.60
2023-10-31T08:31:31.972Z,0.50
2023-10-31T08:32:31.996Z,0.50
2023-10-31T08:33:31.962Z,0.70
2023-10-31T08:34:31.942Z,0.60
2023-10-31T08:35:31.926Z,0.70
2023-10-31T08:36:31.933Z,0.60
2023-10-31T08:37:31.935Z,0.60
2023-10-31T08:38:32.669Z,0.70
2023-10-31T08:39:31.968Z,0.60
2023-10-31T08:40:31.889Z,0.60
2023-10-31T08:41:32.125Z,0.50
2023-10-31T08:42:31.875Z,0.70
2023-10-31T08:43:31.875Z,0.50
2023-10-31T08:44:31.863Z,0.60
2023-10-31T08:45:31.881Z,0.50
2023-10-31T08:46:31.858Z,0.60
2023-10-31T08:47:31.852Z,0.50
2023-10-31T08:48:31.780Z,0.60
2023-10-31T08:49:31.844Z,0.60
2023-10-31T08:50:31.745Z,0.60
2023-10-31T08:51:31.760Z,0.60
2023-10-31T08:52:31.829Z,0.50
2023-10-31T08:53:31.766Z,0.50
2023-10-31T08:54:31.734Z,0.50
2023-10-31T08:55:31.835Z,0.50
2023-10-31T08:56:31.734Z,0.50
2023-10-31T08:57:31.712Z,0.50
2023-10-31T08:58:31.730Z,0.50
2023-10-31T08:59:31.650Z,0.50
2023-10-31T09:00:31.662Z,0.50
2023-10-31T09:01:31.670Z,0.50
2023-10-31T09:02:31.732Z,0.40
2023-10-31T09:03:31.815Z,0.40
2023-10-31T09:04:31.627Z,0.40
2023-10-31T09:05:31.626Z,0.50
2023-10-31T09:06:31.629Z,0.50
2023-10-31T09:07:31.614Z,0.60
2023-10-31T09:08:31.634Z,0.50
2023-10-31T09:09:31.566Z,0.80
2023-10-31T09:10:31.562Z,1.10
2023-10-31T09:11:31.519Z,0.80
2023-10-31T09:12:33.881Z,1.10
2023-10-31T09:13:31.533Z,0.90
2023-10-31T09:14:31.496Z,0.70
2023-10-31T09:15:31.477Z,0.70
2023-10-31T09:16:31.449Z,0.70
2023-10-31T09:17:31.521Z,1.10
2023-10-31T09:18:31.492Z,0.80
2023-10-31T09:19:31.434Z,0.60
2023-10-31T09:20:31.439Z,0.60
2023-10-31T09:21:31.429Z,0.60
2023-10-31T09:22:31.419Z,0.80
2023-10-31T09:23:31.418Z,0.80
2023-10-31T09:24:31.453Z,0.70
2023-10-31T09:25:31.481Z,0.50
2023-10-31T09:26:31.372Z,0.70
2023-10-31T09:27:31.355Z,0.80
2023-10-31T09:28:31.342Z,0.70
2023-10-31T09:29:31.545Z,0.60
2023-10-31T09:30:31.335Z,0.60
2023-10-31T09:31:31.292Z,0.90
2023-10-31T09:32:31.403Z,0.60
2023-10-31T09:33:31.376Z,0.60
2023-10-31T09:34:31.272Z,0.70
2023-10-31T09:35:31.403Z,0.60
2023-10-31T09:36:31.319Z,0.70
2023-10-31T09:37:31.238Z,0.60
2023-10-31T09:38:31.253Z,0.50
2023-10-31T09:39:31.210Z,1.00
2023-10-31T09:40:31.263Z,0.70
2023-10-31T09:41:31.344Z,0.70
2023-10-31T09:42:31.295Z,0.60
2023-10-31T09:43:31.172Z,0.80
2023-10-31T09:44:31.234Z,0.80
2023-10-31T09:45:31.152Z,0.60
2023-10-31T09:46:31.173Z,0.90
2023-10-31T09:47:31.173Z,0.70
2023-10-31T09:48:31.133Z,0.80
2023-10-31T09:49:47.942Z,0.80
2023-10-31T09:50:31.149Z,0.90
2023-10-31T09:51:31.282Z,0.90
2023-10-31T09:52:31.325Z,0.80
2023-10-31T09:53:31.057Z,0.80
2023-10-31T09:54:31.078Z,1.00
2023-10-31T09:55:31.045Z,0.80
2023-10-31T09:56:31.121Z,0.80
2023-10-31T09:57:31.202Z,0.70
2023-10-31T09:58:31.029Z,0.90
2023-10-31T09:59:31.121Z,0.60
2023-10-31T10:00:31.364Z,1.00
2023-10-31T10:01:31.003Z,0.60
2023-10-31T10:02:31.209Z,0.90
2023-10-31T10:03:31.071Z,0.80
2023-10-31T10:04:31.183Z,0.70
2023-10-31T10:05:30.982Z,0.70
2023-10-31T10:06:30.947Z,1.40
2023-10-31T10:07:30.951Z,0.80
2023-10-31T10:08:30.899Z,1.00
2023-10-31T10:09:30.935Z,0.80
2023-10-31T10:10:30.888Z,1.20
2023-10-31T10:11:30.883Z,0.80
2023-10-31T10:12:30.944Z,0.80
2023-10-31T10:13:30.881Z,0.80
2023-10-31T10:14:30.840Z,0.70
2023-10-31T10:15:30.878Z,1.30
2023-10-31T10:16:30.826Z,0.70
2023-10-31T10:17:31.387Z,1.00
2023-10-31T10:18:30.783Z,0.90
2023-10-31T10:19:30.782Z,0.80
2023-10-31T10:20:31.058Z,0.80
2023-10-31T10:21:30.742Z,0.70
2023-10-31T10:22:31.380Z,0.90
2023-10-31T10:23:32.836Z,1.30
2023-10-31T10:24:31.738Z,0.80
2023-10-31T10:25:37.151Z,0.90
2023-10-31T10:26:31.535Z,0.90
2023-10-31T10:27:32.746Z,0.90
2023-10-31T10:28:31.461Z,0.90
2023-10-31T10:29:31.758Z,1.20
2023-10-31T10:30:30.678Z,0.90
2023-10-31T10:31:30.715Z,1.00
2023-10-31T10:32:30.712Z,0.70
2023-10-31T10:33:30.693Z,0.90
2023-10-31T10:34:30.677Z,0.70
2023-10-31T10:35:30.675Z,0.90
2023-10-31T10:36:30.583Z,1.00
2023-10-31T10:37:30.593Z,0.80
2023-10-31T10:38:30.573Z,0.90
2023-10-31T10:39:30.549Z,0.90
2023-10-31T10:40:30.583Z,0.70
2023-10-31T10:41:30.536Z,0.80
2023-10-31T10:42:30.545Z,0.80
2023-10-31T10:43:30.509Z,0.80
2023-10-31T10:44:30.561Z,0.90
2023-10-31T10:45:30.467Z,1.00
2023-10-31T10:46:30.518Z,1.10
2023-10-31T10:47:30.534Z,1.10
2023-10-31T10:48:30.538Z,0.80
2023-10-31T10:49:30.446Z,0.80
2023-10-31T10:50:30.536Z,0.90
2023-10-31T10:51:30.429Z,1.00
2023-10-31T10:52:30.440Z,0.90
2023-10-31T10:53:30.448Z,0.70
2023-10-31T10:54:30.393Z,1.10
2023-10-31T10:55:30.420Z,1.00
2023-10-31T10:56:30.405Z,0.90
2023-10-31T10:57:30.613Z,0.80
2023-10-31T10:58:30.441Z,0.80
2023-10-31T10:59:30.358Z,0.90
2023-10-31T11:00:30.345Z,0.70
2023-10-31T11:01:30.332Z,0.90
2023-10-31T11:02:30.364Z,0.90
2023-10-31T11:03:30.403Z,0.70
2023-10-31T11:04:30.276Z,0.80
2023-10-31T11:05:30.352Z,1.10
2023-10-31T11:06:30.265Z,0.70
2023-10-31T11:07:30.323Z,0.80
2023-10-31T11:08:30.272Z,0.70
2023-10-31T11:09:30.210Z,0.70
2023-10-31T11:10:30.292Z,0.80
2023-10-31T11:11:30.310Z,0.70
2023-10-31T11:12:30.177Z,0.80
2023-10-31T11:13:30.211Z,0.70
2023-10-31T11:14:30.220Z,0.70
2023-10-31T11:15:30.172Z,0.70
2023-10-31T11:16:30.168Z,0.70
2023-10-31T11:17:30.280Z,0.80
2023-10-31T11:18:30.139Z,0.60
2023-10-31T11:19:30.099Z,0.80
2023-10-31T11:20:30.211Z,1.10
2023-10-31T11:21:30.087Z,0.70
2023-10-31T11:22:30.075Z,0.70
2023-10-31T11:23:30.224Z,0.90
2023-10-31T11:24:30.129Z,0.80
2023-10-31T11:25:33.042Z,0.90
2023-10-31T11:26:30.095Z,1.00
2023-10-31T11:27:30.031Z,0.80
2023-10-31T11:28:30.017Z,0.80
2023-10-31T11:29:29.995Z,0.80
2023-10-31T11:30:30.065Z,0.80
2023-10-31T11:31:29.975Z,0.90
2023-10-31T11:32:30.035Z,1.00
2023-10-31T11:33:30.082Z,0.90
2023-10-31T11:34:31.132Z,0.90
2023-10-31T11:35:29.964Z,0.90
2023-10-31T11:36:29.978Z,0.70
2023-10-31T11:37:29.922Z,0.90
2023-10-31T11:38:29.962Z,1.10
2023-10-31T11:39:29.960Z,0.80
2023-10-31T11:40:31.267Z,0.80
2023-10-31T11:41:29.891Z,0.90
2023-10-31T11:42:29.899Z,1.10
2023-10-31T11:43:29.869Z,0.80
2023-10-31T11:44:29.867Z,0.80
2023-10-31T11:45:29.874Z,1.00
2023-10-31T11:46:29.951Z,0.80
2023-10-31T11:47:29.874Z,0.70
2023-10-31T11:48:29.816Z,0.80
2023-10-31T11:49:29.786Z,0.80
2023-10-31T11:50:29.801Z,0.70
2023-10-31T11:51:29.783Z,0.80
2023-10-31T11:52:29.842Z,0.80
2023-10-31T11:53:29.797Z,0.80
2023-10-31T11:54:29.735Z,0.60
2023-10-31T11:55:29.707Z,0.80
2023-10-31T11:56:29.734Z,1.10
2023-10-31T11:57:29.685Z,0.70
2023-10-31T11:58:29.728Z,1.00
2023-10-31T11:59:29.732Z,0.60
2023-10-31T12:00:29.694Z,1.00
2023-10-31T12:01:29.751Z,0.70
2023-10-31T12:02:29.767Z,0.80
2023-10-31T12:03:29.729Z,0.80
2023-10-31T12:04:29.689Z,0.80
2023-10-31T12:05:29.826Z,0.90
2023-10-31T12:06:29.581Z,0.80
2023-10-31T12:07:29.585Z,0.60
2023-10-31T12:08:29.609Z,0.80
2023-10-31T12:09:30.841Z,0.90
2023-10-31T12:10:29.594Z,0.80
2023-10-31T12:11:29.576Z,0.70
2023-10-31T12:12:29.512Z,0.70
2023-10-31T12:13:29.505Z,0.60
2023-10-31T12:14:29.547Z,0.60
2023-10-31T12:15:29.494Z,0.90
2023-10-31T12:16:29.488Z,0.80
2023-10-31T12:17:29.526Z,0.80
2023-10-31T12:18:29.508Z,0.80
2023-10-31T12:19:29.474Z,0.80
2023-10-31T12:20:29.803Z,0.70
2023-10-31T12:21:29.419Z,0.70
2023-10-31T12:22:29.452Z,0.60
2023-10-31T12:23:29.462Z,0.70
2023-10-31T12:24:29.398Z,0.80
2023-10-31T12:25:29.405Z,0.80
2023-10-31T12:26:29.424Z,1.00
2023-10-31T12:27:29.420Z,0.70
2023-10-31T12:28:29.481Z,1.10
2023-10-31T12:29:29.350Z,1.00
2023-10-31T12:30:29.383Z,0.60
2023-10-31T12:31:29.344Z,1.00
2023-10-31T12:32:29.433Z,0.60
2023-10-31T12:33:29.552Z,0.70
2023-10-31T12:34:29.301Z,0.90
2023-10-31T12:35:29.322Z,0.60
2023-10-31T12:36:29.309Z,0.60
2023-10-31T12:37:29.251Z,0.70
2023-10-31T12:38:29.394Z,0.80
2023-10-31T12:39:29.293Z,0.70
2023-10-31T12:40:29.199Z,0.60
2023-10-31T12:41:29.259Z,0.70
2023-10-31T12:42:29.241Z,0.70
2023-10-31T12:43:29.178Z,0.70
2023-10-31T12:44:30.006Z,0.70
2023-10-31T12:45:29.151Z,1.00
2023-10-31T12:46:29.131Z,0.90
2023-10-31T12:47:29.187Z,0.60
2023-10-31T12:48:29.213Z,0.80
2023-10-31T12:49:29.098Z,0.70
2023-10-31T12:50:29.089Z,0.70
2023-10-31T12:51:29.108Z,0.50
2023-10-31T12:52:29.092Z,0.90
2023-10-31T12:53:29.094Z,0.60
2023-10-31T12:54:29.043Z,0.50
2023-10-31T12:55:29.039Z,0.70
2023-10-31T12:56:29.076Z,0.50
2023-10-31T12:57:29.048Z,0.70
2023-10-31T12:58:28.999Z,0.60
2023-10-31T12:59:29.010Z,0.50
2023-10-31T13:00:28.984Z,0.60
2023-10-31T13:01:28.968Z,0.50
2023-10-31T13:02:30.770Z,0.50
2023-10-31T13:03:29.000Z,0.60
2023-10-31T13:04:29.329Z,0.50
2023-10-31T13:05:28.919Z,0.50
2023-10-31T13:06:28.930Z,0.50
2023-10-31T13:07:28.919Z,0.50
2023-10-31T13:08:28.985Z,0.50
2023-10-31T13:09:28.956Z,0.70
2023-10-31T13:10:28.866Z,0.60
2023-10-31T13:11:28.926Z,0.50
2023-10-31T13:12:28.869Z,0.60
2023-10-31T13:13:28.861Z,0.60
2023-10-31T13:14:28.852Z,0.50
2023-10-31T13:15:28.811Z,0.50
2023-10-31T13:16:28.897Z,0.70
2023-10-31T13:17:28.880Z,0.80